createdAt,value
2023-01-08T00:02:11.453Z,8.36
2023-01-08T00:04:38.826Z,8.30
2023-01-08T00:07:05.393Z,8.28
2023-01-08T00:09:31.992Z,8.32
2023-01-08T00:11:58.534Z,8.35
2023-01-08T00:14:25.117Z,8.33
2023-01-08T00:16:52.021Z,8.36
2023-01-08T00:19:19.075Z,8.35
2023-01-08T00:21:45.636Z,8.30
2023-01-08T00:24:12.246Z,8.31
2023-01-08T00:26:38.836Z,8.32
2023-01-08T00:29:05.472Z,8.28
2023-01-08T00:31:32.042Z,8.28
2023-01-08T00:33:58.614Z,8.30
2023-01-08T00:36:25.376Z,8.33
2023-01-08T00:38:52.009Z,8.27
2023-01-08T00:41:18.692Z,8.24
2023-01-08T00:43:45.329Z,8.19
2023-01-08T00:46:12.240Z,8.14
2023-01-08T00:48:39.065Z,8.15
2023-01-08T00:51:07.986Z,8.14
2023-01-08T00:53:35.241Z,8.15
2023-01-08T00:56:04.760Z,8.15
2023-01-08T00:58:31.442Z,8.14
2023-01-08T01:00:58.148Z,8.18
2023-01-08T01:03:24.838Z,8.14
2023-01-08T01:06:00.324Z,8.18
2023-01-08T01:08:26.926Z,8.18
2023-01-08T01:10:53.518Z,8.21
2023-01-08T01:13:20.094Z,8.21
2023-01-08T01:15:46.708Z,8.20
2023-01-08T01:18:13.235Z,8.16
2023-01-08T01:20:39.756Z,8.09
2023-01-08T01:23:06.302Z,8.17
2023-01-08T01:25:37.646Z,8.15
2023-01-08T01:28:04.383Z,8.09
2023-01-08T01:30:30.932Z,8.06
2023-01-08T01:32:57.464Z,8.06
2023-01-08T01:35:23.974Z,8.06
2023-01-08T01:37:50.526Z,8.05
2023-01-08T01:40:17.118Z,8.06
2023-01-08T01:42:44.532Z,8.10
2023-01-08T01:45:22.521Z,8.17
2023-01-08T01:48:11.829Z,8.17
2023-01-08T01:50:48.945Z,8.18
2023-01-08T01:53:22.519Z,8.18
2023-01-08T01:55:50.285Z,8.24
2023-01-08T01:58:23.408Z,8.23
2023-01-08T02:00:51.039Z,8.25
2023-01-08T02:03:23.284Z,8.27
2023-01-08T02:06:01.653Z,8.25
2023-01-08T02:08:48.789Z,8.28
2023-01-08T02:11:21.557Z,8.28
2023-01-08T02:13:58.754Z,8.29
2023-01-08T02:16:48.207Z,8.28
2023-01-08T02:19:27.934Z,8.26
2023-01-08T02:22:30.176Z,8.27
2023-01-08T02:25:09.590Z,8.25
2023-01-08T02:27:37.897Z,8.29
2023-01-08T02:30:06.180Z,8.30
2023-01-08T02:32:41.978Z,8.31
2023-01-08T02:35:10.258Z,8.32
2023-01-08T02:37:37.416Z,8.28
2023-01-08T02:40:23.972Z,8.26
2023-01-08T02:43:09.794Z,8.23
2023-01-08T02:45:50.549Z,8.21
2023-01-08T02:48:52.834Z,8.20
2023-01-08T02:51:31.107Z,8.22
2023-01-08T02:54:02.159Z,8.27
2023-01-08T02:56:33.448Z,8.20
2023-01-08T02:59:02.197Z,8.20
2023-01-08T03:01:29.549Z,8.25
2023-01-08T03:04:00.660Z,8.26
2023-01-08T03:06:28.952Z,8.23
2023-01-08T03:08:55.547Z,8.18
2023-01-08T03:11:24.527Z,8.19
2023-01-08T03:14:11.872Z,8.19
2023-01-08T03:16:44.218Z,8.24
2023-01-08T03:19:22.211Z,8.28
2023-01-08T03:21:51.404Z,8.23
2023-01-08T03:24:25.023Z,8.20
2023-01-08T03:26:56.104Z,8.20
2023-01-08T03:29:24.566Z,8.17
2023-01-08T03:31:55.068Z,8.18
2023-01-08T03:34:24.630Z,8.19
2023-01-08T03:36:55.140Z,8.24
2023-01-08T03:39:28.272Z,8.27
2023-01-08T03:41:59.531Z,8.32
2023-01-08T03:44:26.347Z,8.37
2023-01-08T03:46:55.585Z,8.34
2023-01-08T03:49:25.442Z,8.30
2023-01-08T03:51:52.317Z,8.29
2023-01-08T03:54:23.743Z,8.29
2023-01-08T03:56:50.351Z,8.29
2023-01-08T03:59:16.931Z,8.28
2023-01-08T04:01:43.591Z,8.33
2023-01-08T04:04:10.990Z,8.37
2023-01-08T04:06:37.534Z,8.37
2023-01-08T04:09:04.187Z,8.38
2023-01-08T04:11:30.844Z,8.35
2023-01-08T04:13:57.376Z,8.37
2023-01-08T04:16:23.925Z,8.42
2023-01-08T04:18:50.510Z,8.42
2023-01-08T04:21:17.251Z,8.37
2023-01-08T04:23:43.838Z,8.40
2023-01-08T04:26:10.642Z,8.39
2023-01-08T04:28:37.174Z,8.36
2023-01-08T04:31:08.088Z,8.36
2023-01-08T04:33:34.864Z,8.28
2023-01-08T04:36:02.172Z,8.28
2023-01-08T04:38:28.711Z,8.28
2023-01-08T04:40:59.392Z,8.29
2023-01-08T04:43:26.447Z,8.29
2023-01-08T04:45:53.223Z,8.31
2023-01-08T04:48:19.771Z,8.29
2023-01-08T04:50:46.319Z,8.28
2023-01-08T04:53:12.887Z,8.19
2023-01-08T04:55:39.861Z,8.17
2023-01-08T04:58:06.565Z,8.02
2023-01-08T05:00:33.626Z,7.98
2023-01-08T05:03:00.258Z,7.95
2023-01-08T05:05:27.096Z,7.87
2023-01-08T05:07:53.641Z,7.90
2023-01-08T05:10:20.241Z,7.96
2023-01-08T05:12:46.709Z,7.95
2023-01-08T05:15:13.252Z,7.99
2023-01-08T05:17:39.833Z,7.99
2023-01-08T05:20:07.044Z,8.04
2023-01-08T05:22:33.698Z,8.05
2023-01-08T05:25:00.228Z,8.10
2023-01-08T05:27:28.964Z,8.08
2023-01-08T05:29:55.482Z,8.10
2023-01-08T05:32:22.057Z,8.07
2023-01-08T05:34:48.710Z,8.09
2023-01-08T05:37:15.282Z,8.05
2023-01-08T05:39:42.068Z,8.10
2023-01-08T05:42:08.624Z,8.08
2023-01-08T05:44:35.190Z,8.10
2023-01-08T05:47:01.839Z,8.12
2023-01-08T05:49:28.416Z,8.06
2023-01-08T05:51:55.446Z,8.10
2023-01-08T05:54:22.066Z,8.10
2023-01-08T05:56:48.681Z,8.10
2023-01-08T05:59:15.201Z,8.09
2023-01-08T06:01:41.828Z,8.14
2023-01-08T06:04:08.549Z,8.19
2023-01-08T06:06:35.084Z,8.19
2023-01-08T06:09:01.640Z,8.17
2023-01-08T06:11:28.237Z,8.16
2023-01-08T06:13:57.195Z,8.19
2023-01-08T06:16:23.827Z,8.17
2023-01-08T06:18:50.397Z,8.14
2023-01-08T06:21:16.938Z,8.12
2023-01-08T06:23:43.617Z,8.11
2023-01-08T06:26:10.204Z,8.09
2023-01-08T06:28:36.759Z,8.09
2023-01-08T06:31:08.334Z,8.07
2023-01-08T06:33:36.450Z,8.05
2023-01-08T06:36:04.827Z,8.06
2023-01-08T06:38:33.232Z,8.07
2023-01-08T06:41:03.773Z,8.07
2023-01-08T06:43:30.465Z,8.05
2023-01-08T06:45:58.410Z,8.03
2023-01-08T06:48:25.779Z,8.05
2023-01-08T06:50:52.797Z,8.11
2023-01-08T06:53:20.092Z,8.10
2023-01-08T06:55:46.778Z,8.10
2023-01-08T06:58:13.445Z,8.08
2023-01-08T07:00:40.684Z,8.09
2023-01-08T07:03:07.372Z,8.06
2023-01-08T07:05:33.985Z,8.05
2023-01-08T07:08:00.543Z,8.04
2023-01-08T07:10:27.565Z,8.07
2023-01-08T07:12:54.165Z,8.08
2023-01-08T07:15:20.685Z,8.08
2023-01-08T07:17:48.409Z,8.12
2023-01-08T07:20:15.003Z,8.12
2023-01-08T07:22:41.550Z,8.14
2023-01-08T07:25:08.533Z,8.15
2023-01-08T07:27:35.125Z,8.18
2023-01-08T07:30:01.805Z,8.20
2023-01-08T07:32:28.392Z,8.25
2023-01-08T07:34:59.031Z,8.32
2023-01-08T07:37:26.609Z,8.37
2023-01-08T07:39:53.369Z,8.39
2023-01-08T07:42:20.206Z,8.38
2023-01-08T07:44:46.726Z,8.42
2023-01-08T07:47:13.387Z,8.41
2023-01-08T07:49:39.902Z,8.42
2023-01-08T07:52:06.422Z,8.45
2023-01-08T07:54:32.992Z,8.48
2023-01-08T07:56:59.527Z,8.51
2023-01-08T07:59:26.179Z,8.52
2023-01-08T08:01:52.843Z,8.52
2023-01-08T08:04:20.698Z,8.59
2023-01-08T08:06:47.278Z,8.58
2023-01-08T08:09:13.858Z,8.56
2023-01-08T08:11:40.409Z,8.57
2023-01-08T08:14:07.342Z,8.50
2023-01-08T08:16:34.503Z,8.45
2023-01-08T08:19:01.106Z,8.46
2023-01-08T08:21:29.359Z,8.50
2023-01-08T08:23:56.422Z,8.52
2023-01-08T08:26:23.509Z,8.50
2023-01-08T08:28:50.528Z,8.48
2023-01-08T08:31:20.075Z,8.47
2023-01-08T08:33:46.632Z,8.49
2023-01-08T08:36:13.170Z,8.45
2023-01-08T08:38:40.152Z,8.38
2023-01-08T08:41:07.245Z,8.38
2023-01-08T08:43:33.860Z,8.30
2023-01-08T08:46:00.426Z,8.22
2023-01-08T08:48:27.130Z,8.25
2023-01-08T08:50:53.707Z,8.33
2023-01-08T08:53:20.308Z,8.37
2023-01-08T08:55:46.832Z,8.34
2023-01-08T08:58:14.177Z,8.30
2023-01-08T09:00:42.732Z,8.29
2023-01-08T09:03:14.861Z,8.31
2023-01-08T09:05:43.093Z,8.38
2023-01-08T09:08:10.391Z,8.33
2023-01-08T09:10:38.563Z,8.34
2023-01-08T09:13:05.202Z,8.39
2023-01-08T09:15:31.807Z,8.33
2023-01-08T09:17:58.678Z,8.36
2023-01-08T09:20:27.034Z,8.42
2023-01-08T09:22:54.117Z,8.40
2023-01-08T09:25:20.733Z,8.45
2023-01-08T09:27:48.147Z,8.43
2023-01-08T09:30:14.712Z,8.42
2023-01-08T09:32:41.277Z,8.48
2023-01-08T09:35:08.197Z,8.46
2023-01-08T09:37:34.726Z,8.47
2023-01-08T09:40:03.286Z,8.49
2023-01-08T09:42:31.252Z,8.50
2023-01-08T09:45:00.563Z,8.44
2023-01-08T09:47:32.632Z,8.44
2023-01-08T09:50:03.013Z,8.44
2023-01-08T09:52:31.357Z,8.46
2023-01-08T09:54:58.246Z,8.46
2023-01-08T09:57:24.953Z,8.46
2023-01-08T09:59:51.559Z,8.45
2023-01-08T10:02:24.767Z,8.50
2023-01-08T10:04:57.856Z,8.55
2023-01-08T10:07:26.550Z,8.54
2023-01-08T10:09:54.198Z,8.54
2023-01-08T10:12:33.674Z,8.55
2023-01-08T10:15:03.395Z,8.59
2023-01-08T10:17:37.551Z,8.50
2023-01-08T10:20:22.699Z,8.60
2023-01-08T10:22:50.473Z,8.67
2023-01-08T10:25:20.407Z,8.68
2023-01-08T10:27:53.019Z,8.67
2023-01-08T10:30:23.082Z,8.70
2023-01-08T10:32:55.952Z,8.68
2023-01-08T10:35:34.022Z,8.73
2023-01-08T10:38:01.346Z,8.75
2023-01-08T10:40:38.470Z,8.74
2023-01-08T10:43:35.625Z,8.77
2023-01-08T10:46:08.712Z,8.77
2023-01-08T10:48:39.182Z,8.77
2023-01-08T10:51:18.251Z,8.76
2023-01-08T10:53:45.330Z,8.74
2023-01-08T10:56:24.452Z,8.77
2023-01-08T10:58:51.813Z,8.77
2023-01-08T11:01:25.406Z,8.78
2023-01-08T11:04:04.836Z,8.80
2023-01-08T11:06:44.357Z,8.77
2023-01-08T11:09:25.540Z,8.72
2023-01-08T11:11:52.159Z,8.73
2023-01-08T11:14:29.400Z,8.75
2023-01-08T11:16:57.126Z,8.68
2023-01-08T11:19:27.502Z,8.74
2023-01-08T11:22:00.898Z,8.71
2023-01-08T11:24:34.299Z,8.77
2023-01-08T11:27:16.795Z,8.75
2023-01-08T11:29:45.787Z,8.67
2023-01-08T11:32:12.199Z,8.79
2023-01-08T11:35:17.587Z,8.81
2023-01-08T11:37:54.014Z,8.74
2023-01-08T11:40:48.090Z,8.69
2023-01-08T11:43:20.472Z,8.67
2023-01-08T11:45:59.118Z,8.67
2023-01-08T11:48:37.500Z,8.66
2023-01-08T11:51:22.169Z,8.65
2023-01-08T11:54:14.213Z,8.60
2023-01-08T11:56:49.727Z,8.65
2023-01-08T11:59:45.854Z,8.65
2023-01-08T12:02:24.376Z,8.66
2023-01-08T12:05:03.226Z,8.57
2023-01-08T12:07:35.528Z,8.56
2023-01-08T12:10:24.307Z,8.50
2023-01-08T12:13:09.527Z,8.50
2023-01-08T12:15:55.183Z,8.47
2023-01-08T12:18:31.378Z,8.46
2023-01-08T12:21:47.201Z,8.47
2023-01-08T12:24:55.187Z,8.47
2023-01-08T12:28:13.393Z,8.50
2023-01-08T12:30:57.255Z,8.49
2023-01-08T12:33:35.532Z,8.54
2023-01-08T12:36:17.513Z,8.56
2023-01-08T12:38:49.526Z,8.66
2023-01-08T12:41:18.834Z,8.75
2023-01-08T12:44:23.721Z,8.80
2023-01-08T12:46:52.505Z,8.81
2023-01-08T12:49:29.490Z,8.74
2023-01-08T12:51:56.018Z,8.77
2023-01-08T12:54:30.714Z,8.81
2023-01-08T12:57:21.511Z,8.86
2023-01-08T13:00:12.122Z,8.96
2023-01-08T13:02:57.739Z,9.00
2023-01-08T13:05:24.220Z,9.05
2023-01-08T13:08:21.255Z,9.07
2023-01-08T13:10:56.836Z,9.02
2023-01-08T13:13:35.024Z,9.11
2023-01-08T13:16:19.662Z,9.09
2023-01-08T13:19:03.382Z,9.09
2023-01-08T13:21:41.797Z,9.11
2023-01-08T13:24:30.174Z,9.15
2023-01-08T13:27:09.099Z,9.18
2023-01-08T13:29:38.120Z,9.23
2023-01-08T13:32:05.036Z,9.25
2023-01-08T13:34:42.166Z,9.27
2023-01-08T13:37:19.595Z,9.24
2023-01-08T13:39:53.406Z,9.18
2023-01-08T13:42:31.455Z,9.11
2023-01-08T13:45:00.486Z,9.08
2023-01-08T13:47:41.569Z,9.03
2023-01-08T13:50:37.026Z,9.03
2023-01-08T13:53:04.604Z,9.04
2023-01-08T13:55:36.121Z,9.00
2023-01-08T13:58:29.568Z,8.97
2023-01-08T14:00:58.278Z,8.90
2023-01-08T14:03:35.570Z,8.89
2023-01-08T14:06:16.787Z,8.93
2023-01-08T14:08:58.306Z,8.87
2023-01-08T14:11:30.018Z,8.88
2023-01-08T14:13:57.716Z,8.87
2023-01-08T14:16:25.051Z,8.87
2023-01-08T14:18:52.520Z,8.87
2023-01-08T14:21:23.049Z,8.84
2023-01-08T14:23:51.609Z,8.83
2023-01-08T14:26:35.520Z,8.82
2023-01-08T14:29:15.156Z,8.79
2023-01-08T14:32:13.690Z,8.79
2023-01-08T14:34:42.262Z,8.79
2023-01-08T14:37:13.427Z,8.79
2023-01-08T14:39:40.027Z,8.76
2023-01-08T14:42:42.870Z,8.74
2023-01-08T14:45:26.463Z,8.71
2023-01-08T14:47:56.457Z,8.67
2023-01-08T14:50:25.084Z,8.72
2023-01-08T14:52:55.461Z,8.70
2023-01-08T14:55:22.624Z,8.64
2023-01-08T14:57:52.804Z,8.57
2023-01-08T15:00:30.477Z,8.50
2023-01-08T15:02:57.528Z,8.47
2023-01-08T15:05:32.152Z,8.49
2023-01-08T15:08:04.825Z,8.44
2023-01-08T15:10:33.195Z,8.40
2023-01-08T15:13:03.636Z,8.44
2023-01-08T15:15:32.745Z,8.42
2023-01-08T15:17:59.337Z,8.37
2023-01-08T15:20:31.490Z,8.31
2023-01-08T15:22:58.822Z,8.30
2023-01-08T15:25:30.127Z,8.29
2023-01-08T15:28:01.811Z,8.27
2023-01-08T15:30:34.759Z,8.21
2023-01-08T15:33:21.333Z,8.16
2023-01-08T15:35:48.814Z,8.14
2023-01-08T15:38:16.641Z,8.16
2023-01-08T15:40:44.834Z,8.14
2023-01-08T15:43:14.051Z,8.14
2023-01-08T15:45:46.301Z,8.19
2023-01-08T15:48:13.124Z,8.20
2023-01-08T15:50:42.357Z,8.17
2023-01-08T15:53:24.722Z,8.18
2023-01-08T15:55:51.539Z,8.14
2023-01-08T15:58:18.229Z,8.17
2023-01-08T16:00:46.360Z,8.11
2023-01-08T16:03:14.620Z,8.12
2023-01-08T16:05:41.375Z,8.13
2023-01-08T16:08:07.934Z,8.12
2023-01-08T16:10:34.632Z,8.12
2023-01-08T16:13:01.787Z,8.11
2023-01-08T16:15:30.821Z,8.11
2023-01-08T16:17:58.035Z,8.12
2023-01-08T16:20:24.670Z,8.11
2023-01-08T16:22:51.627Z,8.10
2023-01-08T16:25:18.364Z,8.07
2023-01-08T16:27:44.921Z,8.05
2023-01-08T16:30:17.000Z,8.12
2023-01-08T16:32:50.502Z,8.14
2023-01-08T16:35:17.019Z,8.18
2023-01-08T16:37:43.579Z,8.20
2023-01-08T16:40:11.097Z,8.23
2023-01-08T16:42:37.795Z,8.22
2023-01-08T16:45:04.929Z,8.25
2023-01-08T16:47:31.522Z,8.29
2023-01-08T16:49:58.031Z,8.31
2023-01-08T16:52:24.549Z,8.30
2023-01-08T16:54:51.034Z,8.31
2023-01-08T16:57:17.774Z,8.32
2023-01-08T16:59:44.350Z,8.31
2023-01-08T17:02:11.187Z,8.36
2023-01-08T17:04:37.940Z,8.39
2023-01-08T17:07:04.842Z,8.37
2023-01-08T17:09:31.425Z,8.42
2023-01-08T17:11:58.018Z,8.41
2023-01-08T17:14:24.657Z,8.42
2023-01-08T17:16:51.240Z,8.38
2023-01-08T17:19:17.827Z,8.31
2023-01-08T17:21:45.806Z,8.29
2023-01-08T17:24:12.423Z,8.23
2023-01-08T17:26:39.122Z,8.24
2023-01-08T17:29:05.720Z,8.19
2023-01-08T17:31:39.485Z,8.21
2023-01-08T17:34:08.510Z,8.22
2023-01-08T17:36:36.150Z,8.21
2023-01-08T17:39:03.364Z,8.24
2023-01-08T17:41:48.649Z,8.25
2023-01-08T17:44:15.413Z,8.30
2023-01-08T17:46:45.104Z,8.29
2023-01-08T17:49:14.340Z,8.35
2023-01-08T17:51:42.743Z,8.39
2023-01-08T17:54:15.256Z,8.37
2023-01-08T17:56:42.162Z,8.44
2023-01-08T17:59:14.732Z,8.46
2023-01-08T18:01:42.039Z,8.50
2023-01-08T18:04:08.689Z,8.48
2023-01-08T18:06:36.080Z,8.46
2023-01-08T18:09:03.070Z,8.53
2023-01-08T18:11:30.194Z,8.51
2023-01-08T18:14:02.151Z,8.53
2023-01-08T18:16:30.051Z,8.60
2023-01-08T18:18:57.668Z,8.61
2023-01-08T18:21:25.540Z,8.64
2023-01-08T18:23:52.423Z,8.69
2023-01-08T18:26:23.269Z,8.68
2023-01-08T18:28:51.944Z,8.76
2023-01-08T18:31:18.904Z,8.76
2023-01-08T18:33:45.813Z,8.86
2023-01-08T18:36:13.070Z,8.91
2023-01-08T18:38:42.180Z,8.94
2023-01-08T18:41:09.523Z,8.97
2023-01-08T18:43:36.747Z,8.99
2023-01-08T18:46:06.276Z,9.00
2023-01-08T18:48:34.931Z,9.00
2023-01-08T18:51:07.114Z,9.03
2023-01-08T18:53:34.143Z,9.01
2023-01-08T18:56:03.563Z,9.02
2023-01-08T18:58:30.172Z,9.07
2023-01-08T19:01:03.997Z,9.08
2023-01-08T19:03:30.630Z,9.10
2023-01-08T19:05:57.237Z,9.12
2023-01-08T19:08:23.953Z,9.15
2023-01-08T19:10:50.503Z,9.11
2023-01-08T19:13:17.410Z,9.17
2023-01-08T19:15:43.930Z,9.16
2023-01-08T19:18:10.569Z,9.18
2023-01-08T19:20:43.226Z,9.19
2023-01-08T19:23:10.032Z,9.19
2023-01-08T19:25:38.888Z,9.19
2023-01-08T19:28:05.587Z,9.12
2023-01-08T19:30:32.117Z,9.16
2023-01-08T19:32:58.753Z,9.19
2023-01-08T19:35:25.342Z,9.22
2023-01-08T19:37:51.965Z,9.25
2023-01-08T19:40:18.529Z,9.27
2023-01-08T19:43:03.811Z,9.27
2023-01-08T19:45:30.565Z,9.25
2023-01-08T19:47:57.304Z,9.29
2023-01-08T19:50:23.926Z,9.32
2023-01-08T19:52:52.796Z,9.29
2023-01-08T19:55:22.623Z,9.27
2023-01-08T19:57:49.975Z,9.27
2023-01-08T20:00:17.666Z,9.27
2023-01-08T20:02:44.374Z,9.24
2023-01-08T20:05:11.257Z,9.30
2023-01-08T20:07:38.298Z,9.37
2023-01-08T20:10:05.953Z,9.34
2023-01-08T20:12:33.362Z,9.34
2023-01-08T20:14:59.961Z,9.38
2023-01-08T20:17:26.646Z,9.37
2023-01-08T20:19:53.330Z,9.38
2023-01-08T20:22:20.326Z,9.34
2023-01-08T20:24:47.613Z,9.41
2023-01-08T20:27:15.550Z,9.43
2023-01-08T20:29:42.371Z,9.40
2023-01-08T20:32:08.965Z,9.42
2023-01-08T20:34:35.596Z,9.40
2023-01-08T20:37:05.814Z,9.46
2023-01-08T20:39:32.394Z,9.38
2023-01-08T20:42:04.325Z,9.46
2023-01-08T20:44:32.787Z,9.42
2023-01-08T20:47:00.053Z,9.41
2023-01-08T20:49:27.016Z,9.41
2023-01-08T20:51:59.255Z,9.43
2023-01-08T20:54:27.818Z,9.43
2023-01-08T20:56:56.606Z,9.43
2023-01-08T20:59:26.939Z,9.40
2023-01-08T21:01:54.075Z,9.38
2023-01-08T21:04:21.599Z,9.37
2023-01-08T21:06:48.682Z,9.36
2023-01-08T21:09:17.639Z,9.35
2023-01-08T21:11:44.381Z,9.38
2023-01-08T21:14:11.491Z,9.38
2023-01-08T21:16:40.780Z,9.37
2023-01-08T21:19:10.143Z,9.37
2023-01-08T21:21:40.177Z,9.38
2023-01-08T21:24:09.097Z,9.40
2023-01-08T21:26:37.533Z,9.42
2023-01-08T21:29:08.857Z,9.39
2023-01-08T21:31:36.875Z,9.38
2023-01-08T21:34:04.862Z,9.38
2023-01-08T21:36:31.987Z,9.32
2023-01-08T21:39:00.923Z,9.38
2023-01-08T21:41:47.341Z,9.36
2023-01-08T21:44:38.909Z,9.36
2023-01-08T21:47:08.562Z,9.37
2023-01-08T21:49:36.127Z,9.37
2023-01-08T21:52:21.720Z,9.38
2023-01-08T21:54:48.267Z,9.38
2023-01-08T21:57:16.502Z,9.38
2023-01-08T21:59:43.319Z,9.39
2023-01-08T22:02:16.120Z,9.41
2023-01-08T22:04:43.814Z,9.44
2023-01-08T22:07:10.626Z,9.43
2023-01-08T22:09:39.197Z,9.39
2023-01-08T22:12:07.192Z,9.42
2023-01-08T22:14:34.295Z,9.39
2023-01-08T22:17:01.024Z,9.37
2023-01-08T22:19:27.632Z,9.35
2023-01-08T22:21:54.151Z,9.37
2023-01-08T22:24:20.658Z,9.38
2023-01-08T22:26:48.624Z,9.36
2023-01-08T22:29:15.124Z,9.37
2023-01-08T22:31:41.664Z,9.34
2023-01-08T22:34:09.543Z,9.36
2023-01-08T22:36:36.089Z,9.37
2023-01-08T22:39:02.700Z,9.33
2023-01-08T22:41:29.281Z,9.33
2023-01-08T22:43:56.681Z,9.35
2023-01-08T22:46:24.813Z,9.37
2023-01-08T22:48:51.667Z,9.35
2023-01-08T22:51:20.750Z,9.32
2023-01-08T22:53:47.175Z,9.35
2023-01-08T22:56:14.365Z,9.35
2023-01-08T22:58:45.218Z,9.37
2023-01-08T23:01:21.620Z,9.38
2023-01-08T23:03:52.873Z,9.40
2023-01-08T23:06:21.642Z,9.42
2023-01-08T23:08:48.914Z,9.43
2023-01-08T23:11:17.856Z,9.44
2023-01-08T23:13:45.676Z,9.42
2023-01-08T23:16:14.886Z,9.45
2023-01-08T23:18:41.837Z,9.46
2023-01-08T23:21:14.848Z,9.42
2023-01-08T23:23:41.854Z,9.43
2023-01-08T23:26:12.233Z,9.42
2023-01-08T23:28:39.897Z,9.41
2023-01-08T23:31:09.126Z,9.39
2023-01-08T23:33:35.961Z,9.37
2023-01-08T23:36:03.883Z,9.42
2023-01-08T23:38:30.550Z,9.38
2023-01-08T23:40:57.540Z,9.44
2023-01-08T23:43:24.496Z,9.43
2023-01-08T23:45:51.489Z,9.45
2023-01-08T23:48:18.083Z,9.47
2023-01-08T23:50:44.629Z,9.47
2023-01-08T23:53:11.198Z,9.50
2023-01-08T23:55:37.798Z,9.53
2023-01-08T23:58:04.305Z,9.52
